Airfield :
LOGIN :

Register | Disclaimer

   EN    FR    IT 

 










Legend :    VFR   Marginal VFR   IFR   Intensive IFR   Very Intensive IFR
Visi :
Ceiling :
>= 8 km
>= 3000ft
5 to 8 km
1000 to 3000 ft
1500m to 5 km
500 to 1000 ft
800 to 1500m
200 to 500 ft
< 800m
< 200 ft
Symbols :   Thunderstorms  Fog  Heavy snow  Heavy precipitations  Wind > 20 kt
SIGMETs :     Misc.  Thunderstorms  Icing  Turbulence  Mountain Waves  Volcanic Ashes






- Airport Elevation : 2297 ft


LEGA - Armilla

CURRENT METAR :
  • 131030Z 19010KT 150V220 CAVOK 32/M04 Q1018

EXPIRED METARs :
  • 131000Z 19010KT 160V220 CAVOK 31/M03 Q1018
  • 130930Z 04003KT CAVOK 28/08 Q1018
  • 130900Z 04004KT CAVOK 26/10 Q1018
  • 130830Z 02003KT CAVOK 24/10 Q1018
  • 130800Z 02003KT CAVOK 23/11 Q1018

TAF TAF LEGA
Valid from the 13 at 06:00 until the 14 at 06:00 UTC


130500Z 1306/1406 VRB03KT CAVOK TX33/1315Z TN18/1306Z
BECMG 1308/1310 19012KT
BECMG 1322/1324 VRB03KT



MET'MAP, your aeronautical weather chart ! - Copyright ORBIFLY December 2007 - Disclaimer

ORBIFLY MET'MAP TEAM :

Programming & Development : Alexandra Zaïnal
Concept & original design : Baudouin d'Aumeries
Assistance for programming : Marc-Olivier Méhu
Technical & hardware support : Manuel Goepfert

Contact : metmap@orbifly.com




SOURCES & CREDITS :

   NOAA